createdAt,value
2022-09-13T00:00:42.997Z,951.41
2022-09-13T00:01:42.953Z,951.41
2022-09-13T00:02:42.914Z,951.33
2022-09-13T00:03:42.902Z,951.32
2022-09-13T00:04:42.892Z,951.28
2022-09-13T00:05:42.989Z,951.27
2022-09-13T00:06:42.871Z,951.29
2022-09-13T00:07:42.859Z,951.29
2022-09-13T00:08:42.963Z,951.28
2022-09-13T00:09:42.837Z,951.29
2022-09-13T00:10:42.827Z,951.29
2022-09-13T00:11:42.815Z,951.29
2022-09-13T00:12:42.806Z,951.28
2022-09-13T00:13:42.792Z,951.31
2022-09-13T00:14:42.784Z,951.3
2022-09-13T00:15:42.771Z,951.24
2022-09-13T00:16:42.792Z,951.17
2022-09-13T00:17:42.749Z,951.22
2022-09-13T00:18:42.823Z,951.18
2022-09-13T00:19:42.730Z,951.19
2022-09-13T00:20:42.716Z,951.21
2022-09-13T00:21:42.731Z,951.17
2022-09-13T00:22:42.700Z,951.13
2022-09-13T00:23:42.686Z,951.1
2022-09-13T00:24:42.681Z,951.13
2022-09-13T00:25:42.666Z,951.11
2022-09-13T00:26:42.660Z,951.1
2022-09-13T00:27:42.643Z,951.07
2022-09-13T00:28:42.750Z,951.05
2022-09-13T00:29:42.621Z,951.03
2022-09-13T00:30:42.611Z,950.98
2022-09-13T00:31:42.617Z,950.92
2022-09-13T00:32:42.633Z,950.86
2022-09-13T00:33:42.592Z,950.86
2022-09-13T00:34:42.569Z,950.88
2022-09-13T00:35:42.567Z,950.97
2022-09-13T00:36:42.560Z,950.97
2022-09-13T00:37:42.643Z,950.97
2022-09-13T00:38:42.522Z,950.91
2022-09-13T00:39:44.942Z,950.95
2022-09-13T00:40:42.502Z,950.98
2022-09-13T00:41:42.494Z,950.97
2022-09-13T00:42:42.480Z,950.94
2022-09-13T00:43:42.470Z,950.98
2022-09-13T00:44:42.460Z,950.96
2022-09-13T00:45:42.467Z,950.98
2022-09-13T00:46:42.436Z,951
2022-09-13T00:47:42.428Z,950.98
2022-09-13T00:48:42.416Z,950.99
2022-09-13T00:49:42.406Z,950.96
2022-09-13T00:50:42.394Z,950.95
2022-09-13T00:51:42.385Z,950.96
2022-09-13T00:52:46.159Z,950.94
2022-09-13T00:53:42.428Z,950.91
2022-09-13T00:54:42.353Z,950.96
2022-09-13T00:55:42.342Z,950.93
2022-09-13T00:56:42.330Z,950.91
2022-09-13T00:57:42.321Z,950.93
2022-09-13T00:58:42.317Z,950.92
2022-09-13T00:59:42.301Z,950.9
2022-09-13T01:00:42.316Z,950.96
2022-09-13T01:01:42.277Z,950.98
2022-09-13T01:02:42.267Z,950.94
2022-09-13T01:03:42.276Z,950.97
2022-09-13T01:04:42.244Z,950.91
2022-09-13T01:05:42.236Z,950.9
2022-09-13T01:06:42.224Z,950.89
2022-09-13T01:07:42.214Z,950.91
2022-09-13T01:08:42.201Z,950.95
2022-09-13T01:09:42.301Z,950.98
2022-09-13T01:10:42.183Z,950.93
2022-09-13T01:11:42.170Z,950.94
2022-09-13T01:12:42.161Z,950.89
2022-09-13T01:13:42.177Z,950.85
2022-09-13T01:14:42.141Z,950.9
2022-09-13T01:15:42.128Z,950.82
2022-09-13T01:16:44.783Z,950.86
2022-09-13T01:17:42.106Z,950.89
2022-09-13T01:18:42.097Z,950.89
2022-09-13T01:19:42.101Z,950.88
2022-09-13T01:20:42.077Z,950.87
2022-09-13T01:21:42.065Z,950.88
2022-09-13T01:22:42.055Z,950.86
2022-09-13T01:23:42.099Z,950.85
2022-09-13T01:24:42.035Z,950.84
2022-09-13T01:25:42.046Z,950.81
2022-09-13T01:26:42.014Z,950.8
2022-09-13T01:27:42.000Z,950.78
2022-09-13T01:28:41.992Z,950.77
2022-09-13T01:29:41.979Z,950.8
2022-09-13T01:30:41.970Z,950.82
2022-09-13T01:31:42.034Z,950.85
2022-09-13T01:32:41.950Z,950.84
2022-09-13T01:33:41.936Z,950.88
2022-09-13T01:34:41.927Z,950.82
2022-09-13T01:35:41.919Z,950.86
2022-09-13T01:36:41.906Z,950.89
2022-09-13T01:37:41.894Z,950.85
2022-09-13T01:38:41.885Z,950.85
2022-09-13T01:39:41.902Z,950.85
2022-09-13T01:40:41.862Z,950.84
2022-09-13T01:41:41.875Z,950.9
2022-09-13T01:42:41.841Z,950.89
2022-09-13T01:43:41.917Z,950.91
2022-09-13T01:44:41.819Z,950.93
2022-09-13T01:45:41.852Z,950.88
2022-09-13T01:46:41.799Z,950.84
2022-09-13T01:47:41.787Z,950.85
2022-09-13T01:48:41.777Z,950.84
2022-09-13T01:49:41.766Z,950.77
2022-09-13T01:50:41.756Z,950.79
2022-09-13T01:51:41.743Z,950.78
2022-09-13T01:52:41.734Z,950.74
2022-09-13T01:53:41.797Z,950.7
2022-09-13T01:54:41.712Z,950.64
2022-09-13T01:55:41.702Z,950.63
2022-09-13T01:56:41.692Z,950.6
2022-09-13T01:57:41.704Z,950.57
2022-09-13T01:58:41.670Z,950.6
2022-09-13T01:59:41.657Z,950.54
2022-09-13T02:00:41.649Z,950.52
2022-09-13T02:01:41.639Z,950.51
2022-09-13T02:02:41.626Z,950.54
2022-09-13T02:03:41.668Z,950.56
2022-09-13T02:04:41.604Z,950.55
2022-09-13T02:05:41.596Z,950.57
2022-09-13T02:06:41.583Z,950.57
2022-09-13T02:07:41.573Z,950.54
2022-09-13T02:08:41.560Z,950.58
2022-09-13T02:09:41.550Z,950.55
2022-09-13T02:10:41.537Z,950.51
2022-09-13T02:11:41.530Z,950.59
2022-09-13T02:12:41.516Z,950.53
2022-09-13T02:13:41.621Z,950.52
2022-09-13T02:14:41.494Z,950.51
2022-09-13T02:15:41.503Z,950.49
2022-09-13T02:16:41.536Z,950.52
2022-09-13T02:17:41.463Z,950.46
2022-09-13T02:18:41.454Z,950.47
2022-09-13T02:19:41.442Z,950.48
2022-09-13T02:20:41.439Z,950.42
2022-09-13T02:21:41.421Z,950.46
2022-09-13T02:22:41.409Z,950.44
2022-09-13T02:23:41.399Z,950.44
2022-09-13T02:24:41.386Z,950.43
2022-09-13T02:25:41.380Z,950.41
2022-09-13T02:26:41.365Z,950.36
2022-09-13T02:27:41.356Z,950.34
2022-09-13T02:28:41.343Z,950.4
2022-09-13T02:29:41.444Z,950.32
2022-09-13T02:30:41.321Z,950.34
2022-09-13T02:31:41.390Z,950.32
2022-09-13T02:32:41.302Z,950.37
2022-09-13T02:33:41.293Z,950.39
2022-09-13T02:34:41.277Z,950.35
2022-09-13T02:35:41.272Z,950.31
2022-09-13T02:36:41.256Z,950.26
2022-09-13T02:37:41.247Z,950.24
2022-09-13T02:38:41.235Z,950.25
2022-09-13T02:39:41.240Z,950.26
2022-09-13T02:40:41.213Z,950.27
2022-09-13T02:41:41.204Z,950.29
2022-09-13T02:42:41.192Z,950.26
2022-09-13T02:43:41.307Z,950.25
2022-09-13T02:44:41.172Z,950.26
2022-09-13T02:45:41.320Z,950.29
2022-09-13T02:46:41.148Z,950.23
2022-09-13T02:47:41.139Z,950.23
2022-09-13T02:48:41.127Z,950.19
2022-09-13T02:49:41.118Z,950.21
2022-09-13T02:50:41.104Z,950.2
2022-09-13T02:51:41.097Z,950.2
2022-09-13T02:52:41.086Z,950.24
2022-09-13T02:53:41.072Z,950.19
2022-09-13T02:54:41.065Z,950.21
2022-09-13T02:55:41.053Z,950.2
2022-09-13T02:56:41.044Z,950.21
2022-09-13T02:57:41.031Z,950.17
2022-09-13T02:58:41.026Z,950.18
2022-09-13T02:59:41.011Z,950.19
2022-09-13T03:00:41.002Z,950.12
2022-09-13T03:01:41.011Z,950.13
2022-09-13T03:02:40.980Z,950.09
2022-09-13T03:03:40.969Z,950.1
2022-09-13T03:04:40.959Z,950.16
2022-09-13T03:05:40.949Z,950.16
2022-09-13T03:06:40.939Z,950.15
2022-09-13T03:07:40.929Z,950.12
2022-09-13T03:08:40.917Z,950.16
2022-09-13T03:09:40.907Z,950.14
2022-09-13T03:10:40.900Z,950.08
2022-09-13T03:11:40.884Z,950.03
2022-09-13T03:12:40.880Z,950.04
2022-09-13T03:13:40.863Z,950.08
2022-09-13T03:14:40.854Z,950.01
2022-09-13T03:15:40.843Z,949.99
2022-09-13T03:16:40.880Z,949.95
2022-09-13T03:17:40.849Z,949.93
2022-09-13T03:18:40.812Z,949.92
2022-09-13T03:19:40.799Z,949.9
2022-09-13T03:20:40.792Z,949.87
2022-09-13T03:21:40.780Z,949.87
2022-09-13T03:22:40.770Z,949.8
2022-09-13T03:23:40.761Z,949.84
2022-09-13T03:24:40.749Z,949.76
2022-09-13T03:25:40.740Z,949.74
2022-09-13T03:26:40.728Z,949.74
2022-09-13T03:27:40.718Z,949.78
2022-09-13T03:28:40.709Z,949.84
2022-09-13T03:29:40.696Z,949.8
2022-09-13T03:30:40.687Z,949.83
2022-09-13T03:31:40.708Z,949.8
2022-09-13T03:32:40.666Z,949.73
2022-09-13T03:49:31.260Z,949.87
2022-09-13T03:50:31.221Z,949.87
2022-09-13T03:51:31.209Z,949.94
2022-09-13T03:52:31.193Z,949.91
2022-09-13T03:53:31.181Z,949.96
2022-09-13T03:54:31.168Z,949.97
2022-09-13T03:55:31.157Z,950
2022-09-13T03:56:31.143Z,949.99
2022-09-13T03:57:31.134Z,949.98
2022-09-13T03:58:31.122Z,949.98
2022-09-13T03:59:31.110Z,950.04
2022-09-13T04:00:31.102Z,950.01
2022-09-13T04:01:31.210Z,950.03
2022-09-13T04:02:31.102Z,950.05
2022-09-13T04:03:31.065Z,950.03
2022-09-13T04:04:31.052Z,950.05
2022-09-13T04:05:31.067Z,950.08
2022-09-13T04:06:31.032Z,950.1
2022-09-13T04:07:31.022Z,950.06
2022-09-13T04:08:31.010Z,950.03
2022-09-13T04:09:31.000Z,950.09
2022-09-13T04:10:30.989Z,950.1
2022-09-13T04:11:30.979Z,950.14
2022-09-13T04:12:30.969Z,950.11
2022-09-13T04:13:30.959Z,950.06
2022-09-13T04:14:30.947Z,950.08
2022-09-13T04:15:30.937Z,950.11
2022-09-13T04:16:30.943Z,950.15
2022-09-13T04:17:30.917Z,950.1
2022-09-13T04:18:30.905Z,950.12
2022-09-13T04:19:30.897Z,950.11
2022-09-13T04:20:30.885Z,950.1
2022-09-13T04:21:30.966Z,950.1
2022-09-13T04:22:30.864Z,950.2
2022-09-13T04:23:30.856Z,950.17
2022-09-13T04:24:30.844Z,950.2
2022-09-13T04:25:30.834Z,950.17
2022-09-13T04:26:30.823Z,950.26
2022-09-13T04:27:30.815Z,950.22
2022-09-13T04:28:30.803Z,950.14
2022-09-13T04:29:30.794Z,950.17
2022-09-13T04:30:30.782Z,950.11
2022-09-13T04:31:30.827Z,950.06
2022-09-13T04:32:30.761Z,950.08
2022-09-13T04:33:30.752Z,950.05
2022-09-13T04:34:30.742Z,950.07
2022-09-13T04:35:30.735Z,950.04
2022-09-13T04:36:30.721Z,949.98
2022-09-13T04:37:30.735Z,950.01
2022-09-13T04:38:30.702Z,949.99
2022-09-13T04:39:30.694Z,949.97
2022-09-13T04:40:30.683Z,949.95
2022-09-13T04:41:30.676Z,949.95
2022-09-13T04:42:30.663Z,949.95
2022-09-13T04:43:30.651Z,949.93
2022-09-13T04:44:30.644Z,949.91
2022-09-13T04:45:30.707Z,949.94
2022-09-13T04:46:30.624Z,949.96
2022-09-13T04:47:30.614Z,950.01
2022-09-13T04:48:30.603Z,950.01
2022-09-13T04:49:30.591Z,950.02
2022-09-13T04:50:30.585Z,950.02
2022-09-13T04:51:30.570Z,950.02
2022-09-13T04:52:30.563Z,950.05
2022-09-13T04:53:30.577Z,950.01
2022-09-13T04:54:30.543Z,950.03
2022-09-13T04:55:30.534Z,949.97
2022-09-13T04:56:30.523Z,949.96
2022-09-13T04:57:30.512Z,949.97
2022-09-13T04:58:30.504Z,949.92
2022-09-13T04:59:30.492Z,949.93
2022-09-13T05:00:30.483Z,949.91
2022-09-13T05:01:30.555Z,949.91
2022-09-13T05:02:30.520Z,949.92
2022-09-13T05:03:30.452Z,949.9
2022-09-13T05:04:30.444Z,949.91
2022-09-13T05:05:30.432Z,949.87
2022-09-13T05:06:30.423Z,949.85
2022-09-13T05:07:30.412Z,949.9
2022-09-13T05:08:30.404Z,949.91
2022-09-13T05:09:30.475Z,949.89
2022-09-13T05:10:30.384Z,949.95
2022-09-13T05:11:30.372Z,949.98
2022-09-13T05:12:30.366Z,949.94
2022-09-13T05:13:30.353Z,949.97
2022-09-13T05:14:30.344Z,949.96
2022-09-13T05:15:30.333Z,949.96
2022-09-13T05:16:30.326Z,949.99
2022-09-13T05:17:30.313Z,950.02
2022-09-13T05:18:30.305Z,950
2022-09-13T05:19:30.294Z,949.98
2022-09-13T05:20:30.285Z,949.99
2022-09-13T05:21:30.273Z,950.06
2022-09-13T05:22:30.265Z,950.03
2022-09-13T05:23:30.255Z,950.04
2022-09-13T05:24:30.247Z,950.03
2022-09-13T05:25:30.259Z,949.99
2022-09-13T05:26:30.228Z,950.04
2022-09-13T05:27:30.216Z,950.02
2022-09-13T05:28:30.208Z,950.05
2022-09-13T05:29:30.198Z,950.05
2022-09-13T05:30:30.189Z,950.07
2022-09-13T05:31:30.200Z,950.04
2022-09-13T05:32:30.177Z,950.02
2022-09-13T05:33:30.159Z,950.02
2022-09-13T05:34:30.147Z,950.01
2022-09-13T05:35:30.143Z,950.02
2022-09-13T05:36:30.129Z,949.98
2022-09-13T05:37:30.126Z,950.02
2022-09-13T05:38:30.109Z,950.02
2022-09-13T05:39:39.656Z,949.99
2022-09-13T05:40:30.155Z,949.98
2022-09-13T05:41:30.107Z,949.98
2022-09-13T05:42:30.073Z,950.02
2022-09-13T05:43:30.065Z,950.05
2022-09-13T05:44:30.057Z,950
2022-09-13T05:45:30.056Z,950.03
2022-09-13T05:46:30.062Z,949.99
2022-09-13T05:47:30.028Z,949.95
2022-09-13T05:48:30.020Z,949.97
2022-09-13T05:49:30.011Z,949.94
2022-09-13T05:50:56.640Z,949.95
2022-09-13T05:51:29.992Z,949.93
2022-09-13T05:52:29.988Z,949.96
2022-09-13T05:53:29.975Z,949.95
2022-09-13T05:54:29.963Z,950
2022-09-13T05:55:29.963Z,949.98
2022-09-13T05:56:29.948Z,949.96
2022-09-13T05:57:30.010Z,949.97
2022-09-13T05:58:29.928Z,949.96
2022-09-13T05:59:29.922Z,949.99
2022-09-13T06:00:29.911Z,949.96
2022-09-13T06:01:30.009Z,949.96
2022-09-13T06:02:29.897Z,949.91
2022-09-13T06:03:29.889Z,949.94
2022-09-13T06:04:29.898Z,949.93
2022-09-13T06:05:31.813Z,949.89
2022-09-13T06:06:29.859Z,949.91
2022-09-13T06:07:29.851Z,949.87
2022-09-13T06:08:29.843Z,949.88
2022-09-13T06:09:29.836Z,949.83
2022-09-13T06:10:29.826Z,949.82
2022-09-13T06:11:29.818Z,949.79
2022-09-13T06:12:29.809Z,949.8
2022-09-13T06:13:29.825Z,949.74
2022-09-13T06:14:29.798Z,949.74
2022-09-13T06:15:29.785Z,949.73
2022-09-13T06:16:29.795Z,949.72
2022-09-13T06:17:29.769Z,949.65
2022-09-13T06:18:29.760Z,949.6
2022-09-13T06:19:29.753Z,949.56
2022-09-13T06:20:29.743Z,949.56
2022-09-13T06:21:29.736Z,949.59
2022-09-13T06:22:29.726Z,949.61
2022-09-13T06:23:29.717Z,949.6
2022-09-13T06:24:29.712Z,949.63
2022-09-13T06:25:29.701Z,949.62
2022-09-13T06:26:29.693Z,949.56
2022-09-13T06:27:29.684Z,949.62
2022-09-13T06:28:31.496Z,949.66
2022-09-13T06:29:29.777Z,949.69
2022-09-13T06:30:29.662Z,949.63
2022-09-13T06:31:29.708Z,949.67
2022-09-13T06:32:29.648Z,949.71
2022-09-13T06:33:29.637Z,949.72
2022-09-13T06:34:31.400Z,949.69
2022-09-13T06:35:29.622Z,949.7
2022-09-13T06:36:29.615Z,949.74
2022-09-13T06:37:29.606Z,949.75
2022-09-13T06:38:29.600Z,949.75
2022-09-13T06:39:29.592Z,949.72
2022-09-13T06:40:29.698Z,949.8
2022-09-13T06:41:29.575Z,949.75
2022-09-13T06:42:29.570Z,949.78
2022-09-13T06:43:29.563Z,949.79
2022-09-13T06:44:29.553Z,949.83
2022-09-13T06:45:29.569Z,949.8
2022-09-13T06:46:29.638Z,949.8
2022-09-13T06:47:29.530Z,949.8
2022-09-13T06:48:29.527Z,949.79
2022-09-13T06:49:29.515Z,949.78
2022-09-13T06:50:29.511Z,949.78
2022-09-13T06:51:29.501Z,949.83
2022-09-13T06:52:29.494Z,949.82
2022-09-13T06:53:29.487Z,949.8
2022-09-13T06:54:29.481Z,949.83
2022-09-13T06:55:29.473Z,949.84
2022-09-13T06:56:29.467Z,949.85
2022-09-13T06:57:29.458Z,949.84
2022-09-13T06:58:29.451Z,949.89
2022-09-13T06:59:29.445Z,949.93
2022-09-13T07:00:29.439Z,949.92
2022-09-13T07:01:29.589Z,949.89
2022-09-13T07:02:29.424Z,949.89
2022-09-13T07:03:29.415Z,949.9
2022-09-13T07:04:29.411Z,949.92
2022-09-13T07:05:29.402Z,949.94
2022-09-13T07:06:29.398Z,950.01
2022-09-13T07:07:29.387Z,949.99
2022-09-13T07:08:29.381Z,949.99
2022-09-13T07:09:29.371Z,949.99
2022-09-13T07:10:29.365Z,949.97
2022-09-13T07:11:29.357Z,949.96
2022-09-13T07:12:29.352Z,949.93
2022-09-13T07:13:29.344Z,949.92
2022-09-13T07:14:29.337Z,949.84
2022-09-13T07:15:29.331Z,949.91
2022-09-13T07:16:29.322Z,949.87
2022-09-13T07:17:31.389Z,949.91
2022-09-13T07:18:29.308Z,949.89
2022-09-13T07:19:29.308Z,949.85
2022-09-13T07:20:29.295Z,949.84
2022-09-13T07:21:29.289Z,949.88
2022-09-13T07:22:29.283Z,949.84
2022-09-13T07:23:29.276Z,949.9
2022-09-13T07:24:29.277Z,949.93
2022-09-13T07:25:29.262Z,949.91
2022-09-13T07:26:29.254Z,949.91
2022-09-13T07:27:29.249Z,949.98
2022-09-13T07:28:32.249Z,949.88
2022-09-13T07:29:29.236Z,949.84
2022-09-13T07:30:29.228Z,949.86
2022-09-13T07:31:29.319Z,949.87
2022-09-13T07:32:29.215Z,949.82
2022-09-13T07:33:29.322Z,949.87
2022-09-13T07:34:29.205Z,949.86
2022-09-13T07:35:29.196Z,949.88
2022-09-13T07:36:29.189Z,949.86
2022-09-13T07:37:29.186Z,949.88
2022-09-13T07:38:29.177Z,949.9
2022-09-13T07:39:29.173Z,949.9
2022-09-13T07:40:29.167Z,949.92
2022-09-13T07:41:29.161Z,949.9
2022-09-13T07:42:29.151Z,949.87
2022-09-13T07:43:29.148Z,949.9
2022-09-13T07:44:29.141Z,949.85
2022-09-13T07:45:29.136Z,949.88
2022-09-13T07:46:29.155Z,949.9
2022-09-13T07:47:29.125Z,949.91
2022-09-13T07:48:32.864Z,949.95
2022-09-13T07:49:29.223Z,949.97
2022-09-13T07:50:29.106Z,949.99
2022-09-13T07:51:29.110Z,949.96
2022-09-13T07:52:29.095Z,949.99
2022-09-13T07:53:29.091Z,949.97
2022-09-13T07:54:29.084Z,950.03
2022-09-13T07:55:29.080Z,949.98
2022-09-13T07:56:29.078Z,949.9
2022-09-13T07:57:29.070Z,949.98
2022-09-13T07:58:29.065Z,949.9
2022-09-13T07:59:30.248Z,949.97
2022-09-13T08:00:29.053Z,949.94
2022-09-13T08:01:29.114Z,949.87
2022-09-13T08:02:29.120Z,949.9
2022-09-13T08:03:29.040Z,949.93
2022-09-13T08:04:31.429Z,949.91
2022-09-13T08:05:29.050Z,949.88
2022-09-13T08:06:29.022Z,949.92
2022-09-13T08:07:29.016Z,949.92
2022-09-13T08:08:29.017Z,949.95
2022-09-13T08:09:29.006Z,949.92
2022-09-13T08:10:29.003Z,949.92
2022-09-13T08:11:28.998Z,949.94
2022-09-13T08:12:28.996Z,949.9
2022-09-13T08:13:28.988Z,949.91
2022-09-13T08:14:28.982Z,949.97
2022-09-13T08:15:29.037Z,949.99
2022-09-13T08:16:28.972Z,950
2022-09-13T08:17:28.967Z,950.04
2022-09-13T08:18:28.963Z,950.04
2022-09-13T08:19:28.957Z,950.04
2022-09-13T08:20:28.954Z,950.05
2022-09-13T08:21:29.058Z,950.07
2022-09-13T08:22:28.943Z,950.07
2022-09-13T08:23:28.936Z,950.07
2022-09-13T08:24:28.934Z,950.06
2022-09-13T08:25:28.927Z,950.07
2022-09-13T08:26:28.924Z,950.04
2022-09-13T08:27:28.917Z,950.06
2022-09-13T08:28:28.914Z,950.05
2022-09-13T08:29:28.907Z,950.04
2022-09-13T08:30:28.904Z,950.01
2022-09-13T08:31:29.028Z,950.05
2022-09-13T08:32:28.894Z,950.03
2022-09-13T08:33:28.888Z,950.05
2022-09-13T08:34:28.885Z,949.99
2022-09-13T08:35:28.878Z,950
2022-09-13T08:36:28.878Z,950.02
2022-09-13T08:37:28.893Z,950.08
2022-09-13T08:38:28.865Z,950.08
2022-09-13T08:39:30.389Z,950.07
2022-09-13T08:40:28.855Z,950.02
2022-09-13T08:41:28.847Z,950.04
2022-09-13T08:42:28.844Z,949.97
2022-09-13T08:43:28.837Z,949.98
2022-09-13T08:44:28.836Z,949.95
2022-09-13T08:45:28.827Z,949.96
2022-09-13T08:46:28.947Z,949.96
2022-09-13T08:47:28.817Z,949.9
2022-09-13T08:48:28.813Z,949.86
2022-09-13T08:49:28.806Z,949.8
2022-09-13T08:50:28.803Z,949.8
2022-09-13T08:51:28.796Z,949.8
2022-09-13T08:52:28.793Z,949.71
2022-09-13T08:53:28.810Z,949.68
2022-09-13T08:54:28.783Z,949.66
2022-09-13T08:55:28.775Z,949.76
2022-09-13T08:56:28.772Z,949.78
2022-09-13T08:57:28.767Z,949.79
2022-09-13T08:58:28.762Z,949.75
2022-09-13T08:59:28.757Z,949.72
2022-09-13T09:00:28.750Z,949.69
2022-09-13T09:01:28.780Z,949.7
2022-09-13T09:02:28.790Z,949.68
2022-09-13T09:03:28.737Z,949.75
2022-09-13T09:04:28.730Z,949.78
2022-09-13T09:05:28.727Z,949.69
2022-09-13T09:06:28.721Z,949.71
2022-09-13T09:07:28.717Z,949.72
2022-09-13T09:08:28.710Z,949.75
2022-09-13T09:09:28.731Z,949.74
2022-09-13T09:10:28.702Z,949.8
2022-09-13T09:11:28.699Z,949.85
2022-09-13T09:12:28.693Z,949.89
2022-09-13T09:13:28.691Z,949.92
2022-09-13T09:14:28.684Z,949.92
2022-09-13T09:15:28.712Z,949.94
2022-09-13T09:16:28.675Z,949.94
2022-09-13T09:17:28.696Z,949.92
2022-09-13T09:18:28.668Z,949.9
2022-09-13T09:19:28.665Z,949.87
2022-09-13T09:20:28.662Z,949.79
2022-09-13T09:21:28.656Z,949.83
2022-09-13T09:22:28.651Z,949.82
2022-09-13T09:23:28.649Z,949.8
2022-09-13T09:24:28.643Z,949.78
2022-09-13T09:25:28.664Z,949.78
2022-09-13T09:26:28.634Z,949.73
2022-09-13T09:27:28.633Z,949.68
2022-09-13T09:28:28.628Z,949.67
2022-09-13T09:29:28.624Z,949.67
2022-09-13T09:30:28.619Z,949.76
2022-09-13T09:31:28.618Z,949.81
2022-09-13T09:32:28.611Z,949.81
2022-09-13T09:33:28.610Z,949.82
2022-09-13T09:34:28.604Z,949.8
2022-09-13T09:35:28.605Z,949.78
2022-09-13T09:36:28.597Z,949.8
2022-09-13T09:37:28.594Z,949.78
2022-09-13T09:38:28.589Z,949.71
2022-09-13T09:39:28.586Z,949.77
2022-09-13T09:40:31.678Z,949.71
2022-09-13T09:41:28.689Z,949.75
2022-09-13T09:42:28.589Z,949.69
2022-09-13T09:43:28.572Z,949.76
2022-09-13T09:44:28.571Z,949.73
2022-09-13T09:45:28.567Z,949.78
2022-09-13T09:46:28.626Z,949.69
2022-09-13T09:47:29.508Z,949.66
2022-09-13T09:48:28.555Z,949.66
2022-09-13T09:49:28.548Z,949.66
2022-09-13T09:50:28.545Z,949.68
2022-09-13T09:51:28.541Z,949.68
2022-09-13T09:52:28.540Z,949.64
2022-09-13T09:53:28.536Z,949.71
2022-09-13T09:54:28.533Z,949.64
2022-09-13T09:55:28.526Z,949.64
2022-09-13T09:56:28.524Z,949.64
2022-09-13T09:57:28.545Z,949.57
2022-09-13T09:58:28.524Z,949.58
2022-09-13T09:59:28.513Z,949.55
2022-09-13T10:00:28.512Z,949.49
2022-09-13T10:01:28.563Z,949.48
2022-09-13T10:02:28.562Z,949.46
2022-09-13T10:03:28.499Z,949.46
2022-09-13T10:04:28.498Z,949.48
2022-09-13T10:05:28.492Z,949.42
2022-09-13T10:06:28.491Z,949.45
2022-09-13T10:07:28.488Z,949.35
2022-09-13T10:08:28.486Z,949.44
2022-09-13T10:09:28.481Z,949.4
2022-09-13T10:10:28.480Z,949.4
2022-09-13T10:11:28.475Z,949.38
2022-09-13T10:12:28.472Z,949.4
2022-09-13T10:13:31.721Z,949.38
2022-09-13T10:14:28.467Z,949.4
2022-09-13T10:15:28.462Z,949.39
2022-09-13T10:16:28.604Z,949.46
2022-09-13T10:17:28.454Z,949.41
2022-09-13T10:18:45.030Z,949.39
2022-09-13T10:19:28.448Z,949.43
2022-09-13T10:20:28.447Z,949.4
2022-09-13T10:21:28.441Z,949.4
2022-09-13T10:22:28.438Z,949.46
2022-09-13T10:23:28.433Z,949.36
2022-09-13T10:24:28.433Z,949.36
2022-09-13T10:25:28.429Z,949.36
2022-09-13T10:26:28.424Z,949.41
2022-09-13T10:27:28.419Z,949.46
2022-09-13T10:28:28.417Z,949.41
2022-09-13T10:29:28.672Z,949.4
2022-09-13T10:30:28.433Z,949.42
2022-09-13T10:31:28.405Z,949.38
2022-09-13T10:32:28.403Z,949.39
2022-09-13T10:33:28.400Z,949.33
2022-09-13T10:34:28.398Z,949.38
2022-09-13T10:35:28.391Z,949.36
2022-09-13T10:36:50.983Z,949.38
2022-09-13T10:37:28.386Z,949.34
2022-09-13T10:38:28.383Z,949.37
2022-09-13T10:39:28.380Z,949.33
2022-09-13T10:40:28.448Z,949.26
2022-09-13T10:41:28.373Z,949.2
2022-09-13T10:42:28.370Z,949.24
2022-09-13T10:43:28.369Z,949.22
2022-09-13T10:44:28.365Z,949.24
2022-09-13T10:45:28.387Z,949.22
2022-09-13T10:46:28.358Z,949.24
2022-09-13T10:47:28.355Z,949.21
2022-09-13T10:48:28.353Z,949.23
2022-09-13T10:49:28.350Z,949.15
2022-09-13T10:50:28.345Z,949.15
2022-09-13T10:51:28.349Z,949.13
2022-09-13T10:52:28.343Z,949.11
2022-09-13T10:53:28.340Z,949.13
2022-09-13T10:54:28.335Z,949.07
2022-09-13T10:55:28.334Z,949.14
2022-09-13T10:56:28.331Z,949.12
2022-09-13T10:57:28.329Z,949.15
2022-09-13T10:58:28.325Z,949.11
2022-09-13T10:59:28.326Z,949.17
2022-09-13T11:00:28.323Z,949.17
2022-09-13T11:01:28.467Z,949.16
2022-09-13T11:02:28.317Z,949.15
2022-09-13T11:03:28.314Z,949.14
2022-09-13T11:04:28.403Z,949.12
2022-09-13T11:05:28.311Z,949.12
2022-09-13T11:06:28.309Z,949.12
2022-09-13T11:07:28.309Z,949.12
2022-09-13T11:08:28.303Z,949.08
2022-09-13T11:09:28.302Z,949.13
2022-09-13T11:10:28.301Z,949.09
2022-09-13T11:11:28.299Z,949.11
2022-09-13T11:12:28.295Z,949.13
2022-09-13T11:13:28.299Z,949.14
2022-09-13T11:14:28.292Z,949.12
2022-09-13T11:15:28.291Z,949.17
2022-09-13T11:16:28.306Z,949.14
2022-09-13T11:17:28.310Z,949.1
2022-09-13T11:18:28.284Z,949.09
2022-09-13T11:19:28.286Z,949.07
2022-09-13T11:20:28.283Z,949.13
2022-09-13T11:21:28.284Z,949.12
2022-09-13T11:22:28.277Z,949.06
2022-09-13T11:23:28.275Z,949.08
2022-09-13T11:24:28.273Z,949.04
2022-09-13T11:25:28.274Z,949.08
2022-09-13T11:26:28.270Z,949.09
2022-09-13T11:27:28.269Z,949.02
2022-09-13T11:28:28.265Z,949.05
2022-09-13T11:29:28.265Z,949.01
2022-09-13T11:30:30.109Z,949.02
2022-09-13T11:31:28.318Z,949
2022-09-13T11:32:28.263Z,949.02
2022-09-13T11:33:28.368Z,949.03
2022-09-13T11:34:28.256Z,949.01
2022-09-13T11:35:28.254Z,948.92
2022-09-13T11:36:28.252Z,948.91
2022-09-13T11:37:28.252Z,948.88
2022-09-13T11:38:28.272Z,948.86
2022-09-13T11:39:28.246Z,948.89
2022-09-13T11:40:28.245Z,948.89
2022-09-13T11:41:28.274Z,948.85
2022-09-13T11:42:28.248Z,948.83
2022-09-13T11:43:28.240Z,948.8
2022-09-13T11:44:28.267Z,948.82
2022-09-13T11:45:28.260Z,948.82
2022-09-13T11:46:28.240Z,948.8
2022-09-13T11:47:28.234Z,948.78
2022-09-13T11:48:28.235Z,948.82
2022-09-13T11:49:28.257Z,948.82
2022-09-13T11:50:28.233Z,948.87
2022-09-13T11:51:28.229Z,948.92
2022-09-13T11:52:28.232Z,948.89
2022-09-13T11:53:30.144Z,948.86
2022-09-13T11:54:28.228Z,948.87
2022-09-13T11:55:28.225Z,948.88
2022-09-13T11:56:28.226Z,948.86
2022-09-13T11:57:28.224Z,948.88
2022-09-13T11:58:28.223Z,948.88
2022-09-13T11:59:28.219Z,948.91
2022-09-13T12:00:28.221Z,948.97
2022-09-13T12:01:28.219Z,948.92
2022-09-13T12:02:28.261Z,948.94
2022-09-13T12:03:28.327Z,948.89
2022-09-13T12:04:31.781Z,948.94
2022-09-13T12:05:28.236Z,948.94
2022-09-13T12:06:28.214Z,948.93
2022-09-13T12:07:28.213Z,948.88
2022-09-13T12:08:28.213Z,948.85
2022-09-13T12:09:28.210Z,948.92
2022-09-13T12:10:28.210Z,948.9
2022-09-13T12:11:28.207Z,948.88
2022-09-13T12:12:28.207Z,948.9
2022-09-13T12:13:28.204Z,948.93
2022-09-13T12:14:28.204Z,948.92
2022-09-13T12:15:28.201Z,948.91
2022-09-13T12:16:28.357Z,948.89
2022-09-13T12:17:28.198Z,948.89
2022-09-13T12:18:28.204Z,948.88
2022-09-13T12:19:28.195Z,948.87
2022-09-13T12:20:28.196Z,948.88
2022-09-13T12:21:28.304Z,948.87
2022-09-13T12:22:30.817Z,948.9
2022-09-13T12:23:28.190Z,948.9
2022-09-13T12:24:28.187Z,948.94
2022-09-13T12:25:28.185Z,949
2022-09-13T12:26:28.184Z,948.95
2022-09-13T12:27:28.181Z,948.96
2022-09-13T12:28:28.179Z,948.93
2022-09-13T12:29:28.180Z,948.92
2022-09-13T12:30:28.176Z,948.93
2022-09-13T12:31:28.192Z,948.89
2022-09-13T12:32:28.171Z,948.93
2022-09-13T12:33:28.170Z,948.9
2022-09-13T12:34:28.168Z,948.89
2022-09-13T12:35:28.169Z,948.89
2022-09-13T12:36:28.163Z,948.9
2022-09-13T12:37:28.187Z,948.89
2022-09-13T12:38:31.291Z,948.85
2022-09-13T12:39:28.158Z,948.86
2022-09-13T12:40:28.155Z,948.83
2022-09-13T12:41:28.154Z,948.83
2022-09-13T12:42:28.149Z,948.81
2022-09-13T12:43:28.151Z,948.78
2022-09-13T12:44:31.748Z,948.84
2022-09-13T12:45:28.175Z,948.84
2022-09-13T12:46:28.141Z,948.83
2022-09-13T12:47:28.140Z,948.81